createdAt,value
2022-12-15T00:00:02.835Z,18.90
2022-12-15T00:05:06.776Z,15.10
2022-12-15T00:10:09.207Z,16.07
2022-12-15T00:15:11.357Z,16.30
2022-12-15T00:20:15.027Z,12.00
2022-12-15T00:25:17.342Z,12.63
2022-12-15T00:30:19.014Z,19.47
2022-12-15T00:35:22.545Z,15.33
2022-12-15T00:40:24.324Z,13.57
2022-12-15T00:45:26.275Z,13.97
2022-12-15T00:50:29.876Z,17.27
2022-12-15T00:55:32.529Z,21.97
2022-12-15T01:00:34.684Z,15.73
2022-12-15T01:05:38.181Z,16.83
2022-12-15T01:10:40.585Z,14.37
2022-12-15T01:15:42.839Z,12.03
2022-12-15T01:20:54.488Z,17.00
2022-12-15T01:25:56.767Z,14.17
2022-12-15T01:30:59.213Z,12.27
2022-12-15T01:36:03.032Z,8.97
2022-12-15T01:41:09.144Z,21.33
2022-12-15T01:46:14.002Z,13.57
2022-12-15T01:51:25.998Z,15.67
2022-12-15T01:56:37.008Z,11.87
2022-12-15T02:01:39.854Z,13.90
2022-12-15T02:06:43.326Z,17.53
2022-12-15T02:12:00.022Z,12.63
2022-12-15T02:17:13.429Z,14.40
2022-12-15T02:22:28.431Z,11.60
2022-12-15T02:27:56.848Z,11.60
2022-12-15T02:33:08.493Z,18.43
2022-12-15T02:38:10.224Z,13.37
2022-12-15T02:43:12.626Z,15.53
2022-12-15T02:48:26.945Z,11.67
2022-12-15T02:53:43.697Z,18.33
2022-12-15T02:58:57.563Z,10.30
2022-12-15T03:04:03.992Z,9.13
2022-12-15T03:09:06.167Z,22.93
2022-12-15T03:14:08.564Z,9.13
2022-12-15T03:19:12.077Z,10.90
2022-12-15T03:24:14.479Z,10.73
2022-12-15T03:29:17.286Z,12.53
2022-12-15T03:34:20.738Z,15.30
2022-12-15T03:39:22.443Z,15.70
2022-12-15T03:44:24.211Z,13.53
2022-12-15T03:49:27.618Z,12.03
2022-12-15T03:54:29.734Z,10.80
2022-12-15T03:59:32.045Z,16.87
2022-12-15T04:04:35.549Z,9.53
2022-12-15T04:09:37.846Z,11.47
2022-12-15T04:14:40.235Z,16.70
2022-12-15T04:19:43.708Z,13.33
2022-12-15T04:24:46.023Z,10.97
2022-12-15T04:29:48.233Z,11.70
2022-12-15T04:34:51.371Z,8.43
2022-12-15T04:39:54.470Z,14.17
2022-12-15T04:44:58.750Z,9.80
2022-12-15T04:50:02.305Z,16.13
2022-12-15T04:55:05.084Z,19.67
2022-12-15T05:00:08.391Z,15.13
2022-12-15T05:05:11.531Z,16.20
2022-12-15T05:10:15.301Z,14.80
2022-12-15T05:15:17.870Z,15.10
2022-12-15T05:20:21.477Z,12.20
2022-12-15T05:25:23.243Z,24.43
2022-12-15T05:30:25.028Z,18.90
2022-12-15T05:35:28.238Z,9.50
2022-12-15T05:40:30.548Z,16.03
2022-12-15T05:45:32.929Z,13.97
2022-12-15T05:50:37.117Z,11.60
2022-12-15T05:55:39.152Z,15.03
2022-12-15T06:00:41.640Z,15.53
2022-12-15T06:05:44.889Z,17.07
2022-12-15T06:10:52.468Z,9.00
2022-12-15T06:15:56.767Z,21.63
2022-12-15T06:21:01.763Z,13.67
2022-12-15T06:26:09.625Z,17.57
2022-12-15T06:31:12.372Z,12.03
2022-12-15T06:36:17.413Z,10.27
2022-12-15T06:41:21.576Z,15.30
2022-12-15T06:46:24.134Z,12.17
2022-12-15T06:51:28.563Z,13.20
2022-12-15T06:56:34.393Z,14.40
2022-12-15T07:01:36.715Z,17.10
2022-12-15T07:06:41.221Z,12.63
2022-12-15T07:11:43.458Z,13.37
2022-12-15T07:16:45.755Z,12.93
2022-12-15T07:21:49.553Z,12.90
2022-12-15T07:26:51.319Z,16.20
2022-12-15T07:31:53.660Z,12.03
2022-12-15T07:36:57.219Z,11.73
2022-12-15T07:41:58.982Z,12.23
2022-12-15T07:47:01.065Z,23.43
2022-12-15T07:52:04.737Z,14.37
2022-12-15T07:57:06.557Z,14.27
2022-12-15T08:02:10.312Z,18.77
2022-12-15T08:07:14.133Z,20.33
2022-12-15T08:12:16.299Z,18.30
2022-12-15T08:17:18.824Z,18.30
2022-12-15T08:22:22.448Z,17.50
2022-12-15T08:27:24.722Z,19.23
2022-12-15T08:32:26.436Z,20.50
2022-12-15T08:37:29.993Z,17.70
2022-12-15T08:42:33.895Z,17.47
2022-12-15T08:47:36.310Z,16.70
2022-12-15T08:52:39.472Z,15.70
2022-12-15T08:57:42.194Z,20.83
2022-12-15T09:02:44.471Z,27.37
2022-12-15T09:07:48.337Z,19.17
2022-12-15T09:12:51.911Z,16.70
2022-12-15T09:17:54.135Z,22.20
2022-12-15T09:22:58.068Z,26.43
2022-12-15T09:27:59.843Z,26.70
2022-12-15T09:33:02.204Z,24.13
2022-12-15T09:38:05.882Z,27.93
2022-12-15T09:43:33.986Z,24.30
2022-12-15T09:48:41.854Z,23.43
2022-12-15T09:53:55.626Z,29.27
2022-12-15T09:59:05.802Z,27.50
2022-12-15T10:04:14.219Z,25.57
2022-12-15T10:09:22.166Z,37.90
2022-12-15T10:14:30.876Z,35.10
2022-12-15T10:19:39.311Z,31.70
2022-12-15T10:25:09.319Z,31.80
2022-12-15T10:30:09.329Z,28.67
2022-12-15T10:35:17.376Z,37.00
2022-12-15T10:40:45.438Z,26.47
2022-12-15T10:46:01.125Z,20.67
2022-12-15T10:51:16.555Z,30.57
2022-12-15T10:56:30.614Z,26.37
2022-12-15T11:01:35.699Z,29.77
2022-12-15T11:06:42.219Z,24.90
2022-12-15T11:11:48.327Z,25.27
2022-12-15T11:16:54.642Z,22.30
2022-12-15T11:22:02.252Z,25.17
2022-12-15T11:27:15.135Z,31.60
2022-12-15T11:32:25.570Z,29.80
2022-12-15T11:37:40.352Z,24.93
2022-12-15T11:42:55.298Z,24.30
2022-12-15T11:48:06.370Z,25.63
2022-12-15T11:53:49.525Z,24.97
2022-12-15T11:59:16.609Z,21.60
2022-12-15T12:04:25.014Z,22.80
2022-12-15T12:09:33.982Z,22.83
2022-12-15T12:14:50.628Z,24.90
2022-12-15T12:19:58.239Z,22.30
2022-12-15T12:25:04.591Z,27.33
2022-12-15T12:30:13.046Z,28.13
2022-12-15T12:35:31.250Z,25.90
2022-12-15T12:40:48.679Z,26.13
2022-12-15T12:45:57.710Z,28.70
2022-12-15T12:51:16.437Z,28.37
2022-12-15T12:56:40.803Z,25.37
2022-12-15T13:01:44.108Z,24.67
2022-12-15T13:07:06.803Z,26.60
2022-12-15T13:12:50.930Z,23.30
2022-12-15T13:17:59.361Z,23.27
2022-12-15T13:23:40.345Z,25.07
2022-12-15T13:28:48.907Z,23.73
2022-12-15T13:33:59.897Z,20.63
2022-12-15T13:39:03.675Z,25.63
2022-12-15T13:44:16.044Z,22.37
2022-12-15T13:49:27.344Z,22.47
2022-12-15T13:54:35.628Z,22.60
2022-12-15T13:59:42.665Z,21.80
2022-12-15T14:05:02.648Z,23.17
2022-12-15T14:10:07.845Z,18.37
2022-12-15T14:15:13.208Z,19.47
2022-12-15T14:20:21.458Z,23.10
2022-12-15T14:25:25.623Z,21.27
2022-12-15T14:30:30.201Z,22.13
2022-12-15T14:35:39.891Z,23.47
2022-12-15T14:40:43.430Z,18.87
2022-12-15T14:45:45.625Z,16.00
2022-12-15T14:50:49.717Z,18.63
2022-12-15T14:55:53.166Z,19.77
2022-12-15T15:00:57.092Z,23.20
2022-12-15T15:06:04.054Z,28.03
2022-12-15T15:11:23.224Z,19.03
2022-12-15T15:16:26.013Z,19.03
2022-12-15T15:21:30.975Z,26.03
2022-12-15T15:26:52.495Z,21.87
2022-12-15T15:32:06.087Z,19.30
2022-12-15T15:37:18.283Z,26.60
2022-12-15T15:42:21.210Z,24.17
2022-12-15T15:47:25.144Z,25.80
2022-12-15T15:52:29.456Z,23.50
2022-12-15T15:57:31.515Z,22.57
2022-12-15T16:02:33.834Z,17.17
2022-12-15T16:07:38.255Z,21.53
2022-12-15T16:12:43.468Z,17.77
2022-12-15T16:17:46.246Z,23.33
2022-12-15T16:22:52.948Z,23.23
2022-12-15T16:27:55.165Z,13.63
2022-12-15T16:32:57.934Z,20.13
2022-12-15T16:38:03.598Z,19.23
2022-12-15T16:43:14.045Z,19.00
2022-12-15T16:48:16.619Z,22.60
2022-12-15T16:53:23.918Z,23.67
2022-12-15T16:58:28.660Z,18.53
2022-12-15T17:03:31.130Z,18.70
2022-12-15T17:08:38.823Z,33.87
2022-12-15T17:13:45.618Z,28.07
2022-12-15T17:18:49.118Z,24.37
2022-12-15T17:23:56.987Z,16.17
2022-12-15T17:29:01.317Z,24.13
2022-12-15T17:34:22.160Z,17.27
2022-12-15T17:39:26.442Z,17.13
2022-12-15T17:44:33.746Z,21.90
2022-12-15T17:49:38.347Z,21.40
2022-12-15T17:54:42.465Z,19.13
2022-12-15T17:59:44.211Z,16.60
2022-12-15T18:04:46.181Z,17.37
2022-12-15T18:09:50.470Z,16.57
2022-12-15T18:14:53.715Z,16.67
2022-12-15T18:19:55.488Z,17.70
2022-12-15T18:24:59.017Z,18.67
2022-12-15T18:30:01.198Z,15.97
2022-12-15T18:35:12.965Z,21.60
2022-12-15T18:40:19.312Z,17.43
2022-12-15T18:45:24.504Z,20.73
2022-12-15T18:50:28.237Z,19.93
2022-12-15T18:55:31.960Z,19.10
2022-12-15T19:00:34.744Z,15.67
2022-12-15T19:05:38.067Z,15.57
2022-12-15T19:10:48.786Z,20.97
2022-12-15T19:15:51.939Z,15.50
2022-12-15T19:20:54.708Z,14.87
2022-12-15T19:25:58.676Z,19.33
2022-12-15T19:31:01.418Z,16.90
2022-12-15T19:36:06.318Z,16.47
2022-12-15T19:41:14.405Z,16.73
2022-12-15T19:46:18.226Z,16.97
2022-12-15T19:51:22.640Z,13.27
2022-12-15T19:56:26.115Z,14.63
2022-12-15T20:01:28.393Z,11.43
2022-12-15T20:06:31.373Z,20.50
2022-12-15T20:11:34.683Z,15.83
2022-12-15T20:16:37.148Z,15.50
2022-12-15T20:21:41.460Z,11.47
2022-12-15T20:26:46.031Z,15.20
2022-12-15T20:31:48.114Z,16.23
2022-12-15T20:36:50.421Z,18.87
2022-12-15T20:41:53.983Z,17.83
2022-12-15T20:46:55.814Z,12.53
2022-12-15T20:51:57.575Z,16.10
2022-12-15T20:57:00.660Z,14.30
2022-12-15T21:02:02.572Z,18.50
2022-12-15T21:07:06.330Z,14.27
2022-12-15T21:12:16.386Z,13.63
2022-12-15T21:17:19.754Z,15.50
2022-12-15T21:22:24.333Z,15.73
2022-12-15T21:27:28.109Z,19.33
2022-12-15T21:32:30.066Z,18.67
2022-12-15T21:37:32.326Z,16.63
2022-12-15T21:42:36.724Z,13.57
2022-12-15T21:47:38.427Z,22.97
2022-12-15T21:52:40.897Z,20.03
2022-12-15T21:57:45.119Z,17.77
2022-12-15T22:02:48.929Z,11.60
2022-12-15T22:07:51.892Z,17.17
2022-12-15T22:12:59.500Z,15.47
2022-12-15T22:18:02.018Z,13.30
2022-12-15T22:23:03.725Z,14.87
2022-12-15T22:28:16.918Z,12.97
2022-12-15T22:33:21.223Z,13.00
2022-12-15T22:38:23.883Z,14.67
2022-12-15T22:43:34.114Z,11.20
2022-12-15T22:48:39.133Z,17.13
2022-12-15T22:53:41.741Z,14.77
2022-12-15T22:58:46.768Z,12.60
2022-12-15T23:03:50.637Z,15.37
2022-12-15T23:08:55.792Z,20.17
2022-12-15T23:13:59.575Z,15.13
2022-12-15T23:19:01.863Z,14.30
2022-12-15T23:24:04.216Z,12.20
2022-12-15T23:29:07.939Z,12.93
2022-12-15T23:34:10.122Z,23.80
2022-12-15T23:39:12.846Z,12.60
2022-12-15T23:44:16.111Z,11.93
2022-12-15T23:49:18.468Z,20.60
2022-12-15T23:54:20.549Z,12.10
2022-12-15T23:59:23.655Z,14.47
